โตเกียว, ประเทศญี่ปุ่น

12:20 PM JST วัน สิงหาคม 04, 2015 (GMT +0900)
Tokyo (Haneda) International | | Change Station
CLOSE
Current Station
Airport
Location: Tokyo,
Elevation: 26 ft
Nearby Weather Stations

Elev 26 ft 35.55 °N, 139.78 °E | Updated 20 minutes ago

Partly Cloudy
มีเมฆคลุมเป็นส่วนๆ
91 ฟาเรนไฮน์
Feels Like 105 ฟาเรนไฮน์
N
16
ลม ความผันแปร ลม from ทางทิศใต้

วันนี้
High -- | Low -- ฟาเรนไฮน์
--% Chance of Precip.
Yesterday
High -- | Low -- ฟาเรนไฮน์
Precip. -- นิ้ว
4:50 AM 6:42 PM
ข้างแรม, 81% visible
ความดัน 29.80 นิ้ว
ทัศนวิสัย 5.0 ไมล์
เมฆ Few 2500 ft
ดัชนีความร้อน 105 ฟาเรนไฮน์
อุณหภูมิที่อากาศอาจจับตัวเป็นหยาดน้ำค้าง 77 ฟาเรนไฮน์
ความชื้น 63%
Rainfall 0.00 นิ้ว
Snow Depth Not available.
UV 11 out of 12
Pollen Not available.
Air Quality Not available.
Flu Activity Not available.
METAR RJTT 040300Z 18014KT 8000 FEW025 33/25 Q1009 NOSIG RMK 1CU025 A2981

More Conditions Fewer Conditions

ความดัน 29.80 นิ้ว
ทัศนวิสัย 5.0 ไมล์
เมฆ Few 2500 ft
ดัชนีความร้อน 105 ฟาเรนไฮน์
อุณหภูมิที่อากาศอาจจับตัวเป็นหยาดน้ำค้าง 77 ฟาเรนไฮน์
ความชื้น 63%
Rainfall 0.00 นิ้ว
Snow Depth Not available.
UV 11 out of 12
Pollen Not available.
Air Quality Not available.
Flu Activity Not available.
METAR RJTT 040300Z 18014KT 8000 FEW025 33/25 Q1009 NOSIG RMK 1CU025 A2981

More Conditions Fewer Conditions

10-Day Weather Forecast

×

Almanac

ดาราศาสตร์

Aug. 04, 2015 Rise Set
Actual Time
Civil Twilight
Nautical Twilight
Astronomical Twilight
Moon
Length Of Visible Light
ความยาวของวัน
Tomorrow will be .
, % of the Moon is Illuminated

Today's Extremes

Country Highs Country Lows

Community

WunderPhotos

Upload Photos

1,843,838 photos uploaded!

WunderBlogs® & News

Nearby

Air Quality

  Air Quality AQ Index Pollutant
Not available.

Snow Depth

Station Depth Elevation

Earthquake Activity

City Distance Mag. Time & Date
Minimum magnitude displayed is 2.5.

Coastal Water Temperatures

สถานที่ อุณหภูมิ

Stations

Nearby Weather Stations

Station Location Temp ลมหนาว อุณหภูมิที่อากาศอาจจับตัวเป็นหยาดน้ำค้าง ความชื้น ลม Precip. Elev ปรับปรุงล่าสุด Type